Terminal Aerodrome Forecast
Issued by NWS San Angelo, TX

Home | Current Version | Previous Version | Text Only | Print | Product List | Glossary On
Versions: 1 2 3 4 5 6 7 8 9 10 11 12 13
000
FTUS44 KSJT 231727
TAFSJT
TAF
KSJT 231727Z 2318/2418 17011KT P6SM SCT120
     FM232100 13010KT P6SM SCT090
     FM240500 34010KT P6SM VCTS BKN050CB
     FM241100 01012KT P6SM VCSH BKN025=

USA.gov is the U.S. government's official web portal to all federal, state and local government web resources and services.